Terminal Aerodrome Forecast
Issued by NWS Wilmington, NC

Home | Current Version | Previous Version | Text Only | Print | Product List | Glossary On
Versions: 1 2 3 4 5 6 7 8 9 10 11 12 13 14 15 16 17 18 19 20 21 22 23 24 25 26
732
FTUS42 KILM 210524
TAFMYR
TAF
KMYR 210524Z 2106/2206 16003KT 2SM BR SCT003
      TEMPO 2106/2110 1/2SM FG BKN003
     FM211000 16003KT 1/2SM FG BKN002 BKN025 OVC050
     FM211300 17005KT P6SM BKN015
     FM211400 18008KT P6SM SCT025
     FM220500 17004KT 4SM BR SCT007=

USA.gov is the U.S. government's official web portal to all federal, state and local government web resources and services.